sensor_id;sensor_type;location;lat;lon;timestamp;temperature;humidity
65034;DHT22;51601;51.356;12.458;2023-05-06T00:02:34;13.50;99.90
65034;DHT22;51601;51.356;12.458;2023-05-06T00:06:54;13.50;99.90
65034;DHT22;51601;51.356;12.458;2023-05-06T00:11:13;13.50;99.90
65034;DHT22;51601;51.356;12.458;2023-05-06T00:15:32;13.50;99.90
65034;DHT22;51601;51.356;12.458;2023-05-06T00:19:50;13.50;99.90
65034;DHT22;51601;51.356;12.458;2023-05-06T00:24:09;13.50;99.90
65034;DHT22;51601;51.356;12.458;2023-05-06T00:28:29;13.50;99.90
65034;DHT22;51601;51.356;12.458;2023-05-06T00:32:47;13.50;99.90
65034;DHT22;51601;51.356;12.458;2023-05-06T00:37:08;13.50;99.90
65034;DHT22;51601;51.356;12.458;2023-05-06T00:41:31;13.50;99.90
65034;DHT22;51601;51.356;12.458;2023-05-06T00:45:50;13.50;99.90
65034;DHT22;51601;51.356;12.458;2023-05-06T00:50:09;13.50;99.90
65034;DHT22;51601;51.356;12.458;2023-05-06T00:54:26;13.50;99.90
65034;DHT22;51601;51.356;12.458;2023-05-06T00:58:49;13.50;99.90
65034;DHT22;51601;51.356;12.458;2023-05-06T01:03:09;13.50;99.90
65034;DHT22;51601;51.356;12.458;2023-05-06T01:07:38;13.50;99.90
65034;DHT22;51601;51.356;12.458;2023-05-06T01:12:02;13.50;99.90
65034;DHT22;51601;51.356;12.458;2023-05-06T01:16:24;13.50;99.90
65034;DHT22;51601;51.356;12.458;2023-05-06T01:20:49;13.50;99.90
65034;DHT22;51601;51.356;12.458;2023-05-06T01:25:18;13.60;99.90
65034;DHT22;51601;51.356;12.458;2023-05-06T01:29:38;13.50;99.90
65034;DHT22;51601;51.356;12.458;2023-05-06T01:34:06;13.50;99.90
65034;DHT22;51601;51.356;12.458;2023-05-06T01:38:29;13.60;99.90
65034;DHT22;51601;51.356;12.458;2023-05-06T01:42:54;13.60;99.90
65034;DHT22;51601;51.356;12.458;2023-05-06T01:47:14;13.50;99.90
65034;DHT22;51601;51.356;12.458;2023-05-06T01:51:35;13.50;99.90
65034;DHT22;51601;51.356;12.458;2023-05-06T01:55:53;13.50;99.90
65034;DHT22;51601;51.356;12.458;2023-05-06T02:00:13;13.50;99.90
65034;DHT22;51601;51.356;12.458;2023-05-06T02:04:32;13.40;99.90
65034;DHT22;51601;51.356;12.458;2023-05-06T02:08:50;13.40;99.90
65034;DHT22;51601;51.356;12.458;2023-05-06T02:13:11;13.40;99.90
65034;DHT22;51601;51.356;12.458;2023-05-06T02:17:33;13.40;99.90
65034;DHT22;51601;51.356;12.458;2023-05-06T02:21:53;13.40;99.90
65034;DHT22;51601;51.356;12.458;2023-05-06T02:26:12;13.30;99.90
65034;DHT22;51601;51.356;12.458;2023-05-06T02:30:30;13.30;99.90
65034;DHT22;51601;51.356;12.458;2023-05-06T02:34:52;13.30;99.90
65034;DHT22;51601;51.356;12.458;2023-05-06T02:39:12;13.30;99.90
65034;DHT22;51601;51.356;12.458;2023-05-06T02:43:30;13.30;99.90
65034;DHT22;51601;51.356;12.458;2023-05-06T02:47:48;13.30;99.90
65034;DHT22;51601;51.356;12.458;2023-05-06T02:52:07;13.30;99.90
65034;DHT22;51601;51.356;12.458;2023-05-06T02:56:27;13.20;99.90
65034;DHT22;51601;51.356;12.458;2023-05-06T03:00:45;13.20;99.90
65034;DHT22;51601;51.356;12.458;2023-05-06T03:05:04;13.20;99.90
65034;DHT22;51601;51.356;12.458;2023-05-06T03:09:23;13.20;99.90
65034;DHT22;51601;51.356;12.458;2023-05-06T03:13:42;13.10;99.90
65034;DHT22;51601;51.356;12.458;2023-05-06T03:18:01;13.10;99.90
65034;DHT22;51601;51.356;12.458;2023-05-06T03:22:19;13.10;99.90
65034;DHT22;51601;51.356;12.458;2023-05-06T03:26:41;13.10;99.90
65034;DHT22;51601;51.356;12.458;2023-05-06T03:31:01;13.10;99.90
65034;DHT22;51601;51.356;12.458;2023-05-06T03:35:25;13.00;99.90
65034;DHT22;51601;51.356;12.458;2023-05-06T03:39:46;13.00;99.90
65034;DHT22;51601;51.356;12.458;2023-05-06T03:44:09;13.00;99.90
65034;DHT22;51601;51.356;12.458;2023-05-06T03:48:28;13.00;99.90
65034;DHT22;51601;51.356;12.458;2023-05-06T03:52:47;12.90;99.90
65034;DHT22;51601;51.356;12.458;2023-05-06T03:57:04;12.90;99.90
65034;DHT22;51601;51.356;12.458;2023-05-06T04:01:24;12.90;99.90
65034;DHT22;51601;51.356;12.458;2023-05-06T04:05:44;12.80;99.90
65034;DHT22;51601;51.356;12.458;2023-05-06T04:10:06;12.80;99.90
65034;DHT22;51601;51.356;12.458;2023-05-06T04:14:26;12.80;99.90
65034;DHT22;51601;51.356;12.458;2023-05-06T04:18:45;12.70;99.90
65034;DHT22;51601;51.356;12.458;2023-05-06T04:23:05;12.70;99.90
65034;DHT22;51601;51.356;12.458;2023-05-06T04:27:23;12.60;99.90
65034;DHT22;51601;51.356;12.458;2023-05-06T04:31:44;12.60;99.90
65034;DHT22;51601;51.356;12.458;2023-05-06T04:36:05;12.60;99.90
65034;DHT22;51601;51.356;12.458;2023-05-06T04:40:30;12.60;99.90
65034;DHT22;51601;51.356;12.458;2023-05-06T04:44:51;12.60;99.90
65034;DHT22;51601;51.356;12.458;2023-05-06T04:49:15;12.60;99.90
65034;DHT22;51601;51.356;12.458;2023-05-06T04:53:34;12.70;99.90
65034;DHT22;51601;51.356;12.458;2023-05-06T04:57:54;12.70;99.90
65034;DHT22;51601;51.356;12.458;2023-05-06T05:02:12;12.80;99.90
65034;DHT22;51601;51.356;12.458;2023-05-06T05:06:33;12.90;99.90
65034;DHT22;51601;51.356;12.458;2023-05-06T05:10:56;13.00;99.90
65034;DHT22;51601;51.356;12.458;2023-05-06T05:15:15;13.10;99.90
65034;DHT22;51601;51.356;12.458;2023-05-06T05:19:35;13.20;99.90
65034;DHT22;51601;51.356;12.458;2023-05-06T05:23:59;13.30;99.90
65034;DHT22;51601;51.356;12.458;2023-05-06T05:28:22;13.40;99.90
65034;DHT22;51601;51.356;12.458;2023-05-06T05:32:43;13.50;99.90
65034;DHT22;51601;51.356;12.458;2023-05-06T05:37:07;13.80;99.90
65034;DHT22;51601;51.356;12.458;2023-05-06T05:41:29;14.30;99.90
65034;DHT22;51601;51.356;12.458;2023-05-06T05:45:52;14.80;99.90
65034;DHT22;51601;51.356;12.458;2023-05-06T05:50:14;15.00;99.90
65034;DHT22;51601;51.356;12.458;2023-05-06T05:54:39;15.20;99.90
65034;DHT22;51601;51.356;12.458;2023-05-06T05:59:00;15.30;99.90
65034;DHT22;51601;51.356;12.458;2023-05-06T06:03:22;15.30;99.90
65034;DHT22;51601;51.356;12.458;2023-05-06T06:07:45;15.40;99.90
65034;DHT22;51601;51.356;12.458;2023-05-06T06:12:06;15.30;99.90
65034;DHT22;51601;51.356;12.458;2023-05-06T06:16:30;15.30;99.90
65034;DHT22;51601;51.356;12.458;2023-05-06T06:20:56;15.30;99.90
65034;DHT22;51601;51.356;12.458;2023-05-06T06:25:19;15.30;99.90
65034;DHT22;51601;51.356;12.458;2023-05-06T06:29:40;15.70;99.90
65034;DHT22;51601;51.356;12.458;2023-05-06T06:33:58;16.20;99.90
65034;DHT22;51601;51.356;12.458;2023-05-06T06:38:20;16.90;99.90
65034;DHT22;51601;51.356;12.458;2023-05-06T06:42:40;17.30;99.90
65034;DHT22;51601;51.356;12.458;2023-05-06T06:47:29;17.30;99.90
65034;DHT22;51601;51.356;12.458;2023-05-06T06:51:51;17.00;99.90
65034;DHT22;51601;51.356;12.458;2023-05-06T06:56:13;16.70;99.90
65034;DHT22;51601;51.356;12.458;2023-05-06T07:00:36;16.60;99.90
65034;DHT22;51601;51.356;12.458;2023-05-06T07:04:57;16.50;99.90
65034;DHT22;51601;51.356;12.458;2023-05-06T07:09:15;16.50;99.90
65034;DHT22;51601;51.356;12.458;2023-05-06T07:13:37;16.20;99.90
65034;DHT22;51601;51.356;12.458;2023-05-06T07:17:57;16.10;99.90
65034;DHT22;51601;51.356;12.458;2023-05-06T07:22:18;16.00;99.90
65034;DHT22;51601;51.356;12.458;2023-05-06T07:26:39;15.90;99.90
65034;DHT22;51601;51.356;12.458;2023-05-06T07:30:58;15.70;99.90
65034;DHT22;51601;51.356;12.458;2023-05-06T07:35:19;15.70;99.90
65034;DHT22;51601;51.356;12.458;2023-05-06T07:39:40;15.60;99.90
65034;DHT22;51601;51.356;12.458;2023-05-06T07:44:00;15.50;99.90
65034;DHT22;51601;51.356;12.458;2023-05-06T07:48:21;15.40;99.90
65034;DHT22;51601;51.356;12.458;2023-05-06T07:52:39;15.50;99.90
65034;DHT22;51601;51.356;12.458;2023-05-06T07:57:00;15.50;99.90
65034;DHT22;51601;51.356;12.458;2023-05-06T08:01:22;15.60;99.90
65034;DHT22;51601;51.356;12.458;2023-05-06T08:05:44;15.50;99.90
65034;DHT22;51601;51.356;12.458;2023-05-06T08:10:05;15.50;99.90
65034;DHT22;51601;51.356;12.458;2023-05-06T08:14:25;15.50;99.90
65034;DHT22;51601;51.356;12.458;2023-05-06T08:18:43;15.40;99.90
65034;DHT22;51601;51.356;12.458;2023-05-06T08:23:03;15.30;99.90
65034;DHT22;51601;51.356;12.458;2023-05-06T08:27:22;15.20;99.90
65034;DHT22;51601;51.356;12.458;2023-05-06T08:31:40;15.20;99.90
65034;DHT22;51601;51.356;12.458;2023-05-06T08:35:58;15.40;99.90
65034;DHT22;51601;51.356;12.458;2023-05-06T08:40:19;15.50;99.90
65034;DHT22;51601;51.356;12.458;2023-05-06T08:44:37;15.60;99.90
65034;DHT22;51601;51.356;12.458;2023-05-06T08:48:56;15.80;99.90
65034;DHT22;51601;51.356;12.458;2023-05-06T08:53:14;16.00;99.90
65034;DHT22;51601;51.356;12.458;2023-05-06T08:57:33;16.30;99.90
65034;DHT22;51601;51.356;12.458;2023-05-06T09:01:53;16.70;99.90
65034;DHT22;51601;51.356;12.458;2023-05-06T09:06:11;16.90;99.90
65034;DHT22;51601;51.356;12.458;2023-05-06T09:10:31;17.20;99.90
65034;DHT22;51601;51.356;12.458;2023-05-06T09:14:51;17.20;99.90
65034;DHT22;51601;51.356;12.458;2023-05-06T09:19:12;17.10;99.90
65034;DHT22;51601;51.356;12.458;2023-05-06T09:23:29;17.10;99.90
65034;DHT22;51601;51.356;12.458;2023-05-06T09:27:47;16.90;99.90
65034;DHT22;51601;51.356;12.458;2023-05-06T09:32:07;16.80;99.90
65034;DHT22;51601;51.356;12.458;2023-05-06T09:36:27;16.70;99.90
65034;DHT22;51601;51.356;12.458;2023-05-06T09:40:47;16.70;99.90
65034;DHT22;51601;51.356;12.458;2023-05-06T09:45:07;16.90;99.90
65034;DHT22;51601;51.356;12.458;2023-05-06T09:49:28;16.90;99.90
65034;DHT22;51601;51.356;12.458;2023-05-06T09:53:48;17.00;99.90
65034;DHT22;51601;51.356;12.458;2023-05-06T09:58:07;17.20;99.90
65034;DHT22;51601;51.356;12.458;2023-05-06T10:02:27;17.40;99.90
65034;DHT22;51601;51.356;12.458;2023-05-06T10:06:47;17.50;99.90
65034;DHT22;51601;51.356;12.458;2023-05-06T10:11:06;17.60;99.90
65034;DHT22;51601;51.356;12.458;2023-05-06T10:15:25;17.70;99.90
65034;DHT22;51601;51.356;12.458;2023-05-06T10:19:46;17.90;99.90
65034;DHT22;51601;51.356;12.458;2023-05-06T10:24:10;18.10;99.90
65034;DHT22;51601;51.356;12.458;2023-05-06T10:28:31;18.30;99.90
65034;DHT22;51601;51.356;12.458;2023-05-06T10:32:51;18.50;99.60
65034;DHT22;51601;51.356;12.458;2023-05-06T10:37:11;18.80;99.90
65034;DHT22;51601;51.356;12.458;2023-05-06T10:41:35;19.10;98.10
65034;DHT22;51601;51.356;12.458;2023-05-06T10:46:03;19.50;96.90
65034;DHT22;51601;51.356;12.458;2023-05-06T10:50:23;19.90;95.40
65034;DHT22;51601;51.356;12.458;2023-05-06T10:54:49;20.20;96.50
65034;DHT22;51601;51.356;12.458;2023-05-06T10:59:11;20.60;95.20
65034;DHT22;51601;51.356;12.458;2023-05-06T11:03:31;20.70;91.80
65034;DHT22;51601;51.356;12.458;2023-05-06T11:07:50;20.70;90.70
65034;DHT22;51601;51.356;12.458;2023-05-06T11:12:08;20.70;89.30
65034;DHT22;51601;51.356;12.458;2023-05-06T11:16:49;20.80;89.60
65034;DHT22;51601;51.356;12.458;2023-05-06T11:21:37;20.90;87.00
65034;DHT22;51601;51.356;12.458;2023-05-06T11:25:57;20.90;86.70
65034;DHT22;51601;51.356;12.458;2023-05-06T11:30:16;20.70;86.40
65034;DHT22;51601;51.356;12.458;2023-05-06T11:34:35;20.60;85.80
65034;DHT22;51601;51.356;12.458;2023-05-06T11:38:55;20.40;82.80
65034;DHT22;51601;51.356;12.458;2023-05-06T11:43:14;20.20;81.80
65034;DHT22;51601;51.356;12.458;2023-05-06T11:47:34;20.10;81.60
65034;DHT22;51601;51.356;12.458;2023-05-06T11:51:54;20.20;81.20
65034;DHT22;51601;51.356;12.458;2023-05-06T11:56:13;20.30;79.20
65034;DHT22;51601;51.356;12.458;2023-05-06T12:00:31;20.30;77.50
65034;DHT22;51601;51.356;12.458;2023-05-06T12:04:49;20.30;75.80
65034;DHT22;51601;51.356;12.458;2023-05-06T12:09:10;20.40;74.20
65034;DHT22;51601;51.356;12.458;2023-05-06T12:13:29;20.50;73.10
65034;DHT22;51601;51.356;12.458;2023-05-06T12:17:46;20.70;71.20
65034;DHT22;51601;51.356;12.458;2023-05-06T12:22:15;20.80;69.00
65034;DHT22;51601;51.356;12.458;2023-05-06T12:26:47;20.80;68.30
65034;DHT22;51601;51.356;12.458;2023-05-06T12:31:17;20.80;68.00
65034;DHT22;51601;51.356;12.458;2023-05-06T12:35:36;20.70;66.10
65034;DHT22;51601;51.356;12.458;2023-05-06T12:39:54;20.50;65.50
65034;DHT22;51601;51.356;12.458;2023-05-06T12:44:36;20.30;66.00
65034;DHT22;51601;51.356;12.458;2023-05-06T12:48:58;20.30;66.30
65034;DHT22;51601;51.356;12.458;2023-05-06T12:53:30;20.20;66.20
65034;DHT22;51601;51.356;12.458;2023-05-06T12:57:49;20.10;65.60
65034;DHT22;51601;51.356;12.458;2023-05-06T13:02:08;20.00;65.30
65034;DHT22;51601;51.356;12.458;2023-05-06T13:06:28;19.80;65.00
65034;DHT22;51601;51.356;12.458;2023-05-06T13:10:46;19.70;65.50
65034;DHT22;51601;51.356;12.458;2023-05-06T13:15:05;19.50;65.80
65034;DHT22;51601;51.356;12.458;2023-05-06T13:19:27;19.40;65.90
65034;DHT22;51601;51.356;12.458;2023-05-06T13:23:49;19.30;66.30
65034;DHT22;51601;51.356;12.458;2023-05-06T13:28:08;19.20;66.30
65034;DHT22;51601;51.356;12.458;2023-05-06T13:32:26;19.00;66.70
65034;DHT22;51601;51.356;12.458;2023-05-06T13:36:45;19.00;67.40
65034;DHT22;51601;51.356;12.458;2023-05-06T13:41:06;19.00;67.40
65034;DHT22;51601;51.356;12.458;2023-05-06T13:45:26;19.10;67.20
65034;DHT22;51601;51.356;12.458;2023-05-06T13:49:44;19.10;66.70
65034;DHT22;51601;51.356;12.458;2023-05-06T13:54:03;19.00;66.30
65034;DHT22;51601;51.356;12.458;2023-05-06T13:58:23;19.00;67.30
65034;DHT22;51601;51.356;12.458;2023-05-06T14:02:41;19.10;67.60
65034;DHT22;51601;51.356;12.458;2023-05-06T14:06:59;19.20;66.80
65034;DHT22;51601;51.356;12.458;2023-05-06T14:11:19;19.10;66.60
65034;DHT22;51601;51.356;12.458;2023-05-06T14:15:38;18.90;66.60
65034;DHT22;51601;51.356;12.458;2023-05-06T14:19:56;18.80;66.90
65034;DHT22;51601;51.356;12.458;2023-05-06T14:24:14;18.60;67.00
65034;DHT22;51601;51.356;12.458;2023-05-06T14:28:34;18.30;67.30
65034;DHT22;51601;51.356;12.458;2023-05-06T14:32:54;18.10;68.30
65034;DHT22;51601;51.356;12.458;2023-05-06T14:37:12;18.00;69.40
65034;DHT22;51601;51.356;12.458;2023-05-06T14:41:30;18.00;69.30
65034;DHT22;51601;51.356;12.458;2023-05-06T14:45:49;18.00;69.00
65034;DHT22;51601;51.356;12.458;2023-05-06T14:50:10;17.90;69.60
65034;DHT22;51601;51.356;12.458;2023-05-06T14:54:30;17.90;69.80
65034;DHT22;51601;51.356;12.458;2023-05-06T14:58:48;17.90;69.80
65034;DHT22;51601;51.356;12.458;2023-05-06T15:03:08;17.90;70.10
65034;DHT22;51601;51.356;12.458;2023-05-06T15:07:27;17.90;70.00
65034;DHT22;51601;51.356;12.458;2023-05-06T15:11:45;17.80;70.60
65034;DHT22;51601;51.356;12.458;2023-05-06T15:16:04;17.60;69.70
65034;DHT22;51601;51.356;12.458;2023-05-06T15:20:29;17.50;69.90
65034;DHT22;51601;51.356;12.458;2023-05-06T15:24:49;17.40;70.40
65034;DHT22;51601;51.356;12.458;2023-05-06T15:29:07;17.30;70.60
65034;DHT22;51601;51.356;12.458;2023-05-06T15:33:25;17.30;71.00
65034;DHT22;51601;51.356;12.458;2023-05-06T15:37:44;17.20;71.80
65034;DHT22;51601;51.356;12.458;2023-05-06T15:42:04;17.20;72.50
65034;DHT22;51601;51.356;12.458;2023-05-06T15:46:22;17.00;72.80
65034;DHT22;51601;51.356;12.458;2023-05-06T15:50:40;17.00;73.20
65034;DHT22;51601;51.356;12.458;2023-05-06T15:55:00;16.90;73.90
65034;DHT22;51601;51.356;12.458;2023-05-06T15:59:19;16.80;75.10
65034;DHT22;51601;51.356;12.458;2023-05-06T16:03:38;16.60;75.50
65034;DHT22;51601;51.356;12.458;2023-05-06T16:07:59;16.40;75.70
65034;DHT22;51601;51.356;12.458;2023-05-06T16:12:18;16.10;76.40
65034;DHT22;51601;51.356;12.458;2023-05-06T16:16:38;15.90;77.80
65034;DHT22;51601;51.356;12.458;2023-05-06T16:20:56;15.80;79.10
65034;DHT22;51601;51.356;12.458;2023-05-06T16:25:14;15.70;80.80
65034;DHT22;51601;51.356;12.458;2023-05-06T16:29:33;15.70;81.80
65034;DHT22;51601;51.356;12.458;2023-05-06T16:33:53;15.70;82.50
65034;DHT22;51601;51.356;12.458;2023-05-06T16:38:11;15.60;83.30
65034;DHT22;51601;51.356;12.458;2023-05-06T16:42:30;15.50;83.80
65034;DHT22;51601;51.356;12.458;2023-05-06T16:46:51;15.40;84.60
65034;DHT22;51601;51.356;12.458;2023-05-06T16:51:12;15.30;85.20
65034;DHT22;51601;51.356;12.458;2023-05-06T16:55:36;15.10;85.60
65034;DHT22;51601;51.356;12.458;2023-05-06T16:59:57;14.80;86.60
65034;DHT22;51601;51.356;12.458;2023-05-06T17:04:21;14.60;88.30
65034;DHT22;51601;51.356;12.458;2023-05-06T17:08:40;14.40;90.20
65034;DHT22;51601;51.356;12.458;2023-05-06T17:13:00;14.20;90.40
65034;DHT22;51601;51.356;12.458;2023-05-06T17:17:18;14.00;90.80
65034;DHT22;51601;51.356;12.458;2023-05-06T17:21:41;13.80;91.40
65034;DHT22;51601;51.356;12.458;2023-05-06T17:26:05;13.60;92.30
65034;DHT22;51601;51.356;12.458;2023-05-06T17:30:28;13.40;92.90
65034;DHT22;51601;51.356;12.458;2023-05-06T17:34:49;13.30;93.60
65034;DHT22;51601;51.356;12.458;2023-05-06T17:39:08;13.10;94.40
65034;DHT22;51601;51.356;12.458;2023-05-06T17:43:28;12.90;94.90
65034;DHT22;51601;51.356;12.458;2023-05-06T17:47:50;12.80;95.20
65034;DHT22;51601;51.356;12.458;2023-05-06T17:52:07;12.60;95.90
65034;DHT22;51601;51.356;12.458;2023-05-06T17:56:28;12.50;96.50
65034;DHT22;51601;51.356;12.458;2023-05-06T18:00:46;12.40;97.10
65034;DHT22;51601;51.356;12.458;2023-05-06T18:05:05;12.30;97.50
65034;DHT22;51601;51.356;12.458;2023-05-06T18:09:26;12.20;97.80
65034;DHT22;51601;51.356;12.458;2023-05-06T18:13:48;12.10;98.10
65034;DHT22;51601;51.356;12.458;2023-05-06T18:18:11;12.00;98.40
65034;DHT22;51601;51.356;12.458;2023-05-06T18:22:29;11.90;98.70
65034;DHT22;51601;51.356;12.458;2023-05-06T18:26:47;11.80;99.20
65034;DHT22;51601;51.356;12.458;2023-05-06T18:31:09;11.70;99.70
65034;DHT22;51601;51.356;12.458;2023-05-06T18:35:30;11.60;99.90
65034;DHT22;51601;51.356;12.458;2023-05-06T18:39:50;11.60;99.90
65034;DHT22;51601;51.356;12.458;2023-05-06T18:44:11;11.40;99.90
65034;DHT22;51601;51.356;12.458;2023-05-06T18:48:31;11.40;99.90
65034;DHT22;51601;51.356;12.458;2023-05-06T18:52:57;11.20;99.90
65034;DHT22;51601;51.356;12.458;2023-05-06T18:57:15;11.20;99.90
65034;DHT22;51601;51.356;12.458;2023-05-06T19:01:36;11.10;99.90
65034;DHT22;51601;51.356;12.458;2023-05-06T19:05:57;10.90;99.90
65034;DHT22;51601;51.356;12.458;2023-05-06T19:10:15;10.90;99.90
65034;DHT22;51601;51.356;12.458;2023-05-06T19:14:36;10.80;99.90
65034;DHT22;51601;51.356;12.458;2023-05-06T19:18:54;10.70;99.90
65034;DHT22;51601;51.356;12.458;2023-05-06T19:23:24;10.60;99.90
65034;DHT22;51601;51.356;12.458;2023-05-06T19:27:49;10.60;99.90
65034;DHT22;51601;51.356;12.458;2023-05-06T19:32:10;10.50;99.90
65034;DHT22;51601;51.356;12.458;2023-05-06T19:36:28;10.40;99.90
65034;DHT22;51601;51.356;12.458;2023-05-06T19:40:50;10.40;99.90
65034;DHT22;51601;51.356;12.458;2023-05-06T19:45:14;10.40;99.90
65034;DHT22;51601;51.356;12.458;2023-05-06T19:49:34;10.30;99.90
65034;DHT22;51601;51.356;12.458;2023-05-06T19:53:56;10.40;99.90
65034;DHT22;51601;51.356;12.458;2023-05-06T19:58:18;10.40;99.90
65034;DHT22;51601;51.356;12.458;2023-05-06T20:02:38;10.50;99.90
65034;DHT22;51601;51.356;12.458;2023-05-06T20:07:02;10.60;99.90
65034;DHT22;51601;51.356;12.458;2023-05-06T20:11:20;10.70;99.90
65034;DHT22;51601;51.356;12.458;2023-05-06T20:15:43;10.70;99.90
65034;DHT22;51601;51.356;12.458;2023-05-06T20:20:03;10.70;99.90
65034;DHT22;51601;51.356;12.458;2023-05-06T20:24:27;10.70;99.90
65034;DHT22;51601;51.356;12.458;2023-05-06T20:28:48;10.70;99.90
65034;DHT22;51601;51.356;12.458;2023-05-06T20:33:10;10.70;99.90
65034;DHT22;51601;51.356;12.458;2023-05-06T20:37:32;10.70;99.90
65034;DHT22;51601;51.356;12.458;2023-05-06T20:41:51;10.80;99.90
65034;DHT22;51601;51.356;12.458;2023-05-06T20:46:12;10.80;99.90
65034;DHT22;51601;51.356;12.458;2023-05-06T20:50:33;10.70;99.90
65034;DHT22;51601;51.356;12.458;2023-05-06T20:54:51;10.80;99.90
65034;DHT22;51601;51.356;12.458;2023-05-06T20:59:12;10.80;99.90
65034;DHT22;51601;51.356;12.458;2023-05-06T21:03:31;10.70;99.90
65034;DHT22;51601;51.356;12.458;2023-05-06T21:07:50;10.70;99.90
65034;DHT22;51601;51.356;12.458;2023-05-06T21:12:10;10.70;99.90
65034;DHT22;51601;51.356;12.458;2023-05-06T21:16:28;10.70;99.90
65034;DHT22;51601;51.356;12.458;2023-05-06T21:20:46;10.70;99.90
65034;DHT22;51601;51.356;12.458;2023-05-06T21:25:09;10.60;99.90
65034;DHT22;51601;51.356;12.458;2023-05-06T21:29:28;10.70;99.90
65034;DHT22;51601;51.356;12.458;2023-05-06T21:33:46;10.70;99.90
65034;DHT22;51601;51.356;12.458;2023-05-06T21:38:04;10.70;99.90
65034;DHT22;51601;51.356;12.458;2023-05-06T21:42:26;10.70;99.90
65034;DHT22;51601;51.356;12.458;2023-05-06T21:46:46;10.60;99.90
65034;DHT22;51601;51.356;12.458;2023-05-06T21:51:05;10.60;99.90
65034;DHT22;51601;51.356;12.458;2023-05-06T21:55:23;10.60;99.90
65034;DHT22;51601;51.356;12.458;2023-05-06T21:59:45;10.60;99.90
65034;DHT22;51601;51.356;12.458;2023-05-06T22:04:05;10.50;99.90
65034;DHT22;51601;51.356;12.458;2023-05-06T22:08:29;10.50;99.90
65034;DHT22;51601;51.356;12.458;2023-05-06T22:12:50;10.50;99.90
65034;DHT22;51601;51.356;12.458;2023-05-06T22:17:09;10.40;99.90
65034;DHT22;51601;51.356;12.458;2023-05-06T22:21:29;10.40;99.90
65034;DHT22;51601;51.356;12.458;2023-05-06T22:25:47;10.40;99.90
65034;DHT22;51601;51.356;12.458;2023-05-06T22:30:13;10.40;99.90
65034;DHT22;51601;51.356;12.458;2023-05-06T22:34:34;10.30;99.90
65034;DHT22;51601;51.356;12.458;2023-05-06T22:38:54;10.40;99.90
65034;DHT22;51601;51.356;12.458;2023-05-06T22:43:15;10.40;99.90
65034;DHT22;51601;51.356;12.458;2023-05-06T22:47:33;10.40;99.90
65034;DHT22;51601;51.356;12.458;2023-05-06T22:51:52;10.40;99.90
65034;DHT22;51601;51.356;12.458;2023-05-06T22:56:18;10.30;99.90
65034;DHT22;51601;51.356;12.458;2023-05-06T23:00:42;10.30;99.90
65034;DHT22;51601;51.356;12.458;2023-05-06T23:05:07;10.20;99.90
65034;DHT22;51601;51.356;12.458;2023-05-06T23:09:29;10.20;99.90
65034;DHT22;51601;51.356;12.458;2023-05-06T23:13:52;10.10;99.90
65034;DHT22;51601;51.356;12.458;2023-05-06T23:18:13;10.10;99.90
65034;DHT22;51601;51.356;12.458;2023-05-06T23:22:34;10.10;99.90
65034;DHT22;51601;51.356;12.458;2023-05-06T23:26:57;10.00;99.90
65034;DHT22;51601;51.356;12.458;2023-05-06T23:31:17;9.90;99.90
65034;DHT22;51601;51.356;12.458;2023-05-06T23:35:38;9.80;99.90
65034;DHT22;51601;51.356;12.458;2023-05-06T23:39:59;9.70;99.90
65034;DHT22;51601;51.356;12.458;2023-05-06T23:44:22;9.70;99.90
65034;DHT22;51601;51.356;12.458;2023-05-06T23:48:47;9.60;99.90
65034;DHT22;51601;51.356;12.458;2023-05-06T23:53:06;9.60;99.90
65034;DHT22;51601;51.356;12.458;2023-05-06T23:57:27;9.60;99.90
